Latest Weather Observations for Mount Crawford

IDS60901

Issued at 9:31 am CDT Sunday 21 December 2014 (issued every 10 minutes, with the page automatically refreshed every 10 minutes)

About weather observations | Map of Adelaide area stations | Latest observations for Adelaide area | Other Formats
Station Details ID: 023878 Name: MT CRAWFORD AWS Lat: -34.73 Lon: 138.93 Height: 525.0 m
Data from the previous 72 hours. | See also: Recent months at Mount Crawford
Date/Time
CDT
Tmp

°C
App
Tmp
°C
Dew
Point
°C
Rel
Hum
%
Delta-T

°C
Wind Press
QNH
hPa
Press
MSL
hPa
Rain
since
9 am
mm
Dir
 
Spd
km/h
Gust
km/h
Spd
kts
Gust
kts
21/09:30am 28.3 22.3 3.2 20 12.8 N 24 35 13 19 1014.0 1012.2 0.0
21/09:00am 27.4 22.3 3.2 21 12.3 NNE 19 30 10 16 1014.0 1012.2 0.0
21/08:30am 26.3 19.5 2.9 22 11.8 NNE 28 39 15 21 1014.1 1012.3 0.0
21/08:00am 24.9 18.9 3.5 25 10.8 NNE 24 32 13 17 1014.0 1012.2 0.0
21/07:30am 23.8 18.0 4.2 28 9.9 NNE 24 28 13 15 1013.7 1011.9 0.0
21/07:00am 22.4 17.4 4.5 31 9.0 NNE 20 28 11 15 1013.5 1011.7 0.0
21/06:30am 21.1 15.3 4.6 34 8.3 NE 24 30 13 16 1013.2 1011.4 0.0
21/06:00am 20.7 14.6 4.7 35 8.0 NE 26 33 14 18 1013.1 1011.3 0.0
21/05:30am 20.1 13.8 5.7 39 7.3 NE 28 35 15 19 1012.9 1011.2 0.0
21/05:00am 19.1 13.1 6.9 45 6.3 ENE 28 35 15 19 1012.8 1011.1 0.0
21/04:30am 18.7 12.8 7.5 48 5.8 ENE 28 35 15 19 1012.7 1011.0 0.0
21/04:00am 18.1 12.7 8.1 52 5.3 ENE 26 35 14 19 1012.8 1011.1 0.0
21/03:30am 17.1 11.9 8.8 58 4.4 ENE 26 30 14 16 1012.8 1011.1 0.0
21/03:00am 16.9 11.8 9.1 60 4.2 E 26 32 14 17 1013.1 1011.3 0.0
21/02:30am 17.3 12.1 9.0 58 4.4 E 26 32 14 17 1013.7 1011.9 0.0
21/02:00am 17.5 12.0 9.2 58 4.4 E 28 33 15 18 1013.7 1011.9 0.0
21/01:30am 16.4 11.4 9.6 64 3.6 ESE 26 28 14 15 1013.9 1012.1 0.0
21/01:00am 16.1 11.2 9.8 66 3.4 ESE 26 30 14 16 1014.1 1012.3 0.0
21/12:30am 15.8 10.8 9.5 66 3.4 ESE 26 30 14 16 1014.3 1012.5 0.0
21/12:00am 16.2 11.1 9.2 63 3.7 ESE 26 32 14 17 1014.5 1012.8 0.0
 
Date/Time
CDT
Tmp

°C
App
Tmp
°C
Dew
Point
°C
Rel
Hum
%
Delta-T

°C
Wind Press
QNH
hPa
Press
MSL
hPa
Rain
since
9 am
mm
Dir
 
Spd
km/h
Gust
km/h
Spd
kts
Gust
kts
20/11:30pm 16.5 11.5 9.4 63 3.8 ESE 26 32 14 17 1014.8 1013.1 0.0
20/11:00pm 16.9 12.3 9.8 63 3.8 SE 24 30 13 16 1015.2 1013.4 0.0
20/10:30pm 17.1 12.6 10.0 63 3.8 ESE 24 30 13 16 1015.4 1013.6 0.0
20/10:00pm 17.5 13.5 10.4 63 3.9 SE 22 28 12 15 1015.6 1013.8 0.0
20/09:30pm 17.9 13.9 10.3 61 4.2 SE 22 28 12 15 1015.6 1013.8 0.0
20/09:00pm 18.7 15.0 10.3 58 4.6 SE 20 24 11 13 1015.7 1013.9 0.0
20/08:00pm 21.4 17.7 9.6 47 6.5 SE 19 24 10 13 1015.2 1013.4 0.0
20/07:30pm 22.9 19.1 9.0 41 7.6 SSE 19 28 10 15 1014.9 1013.2 0.0
20/07:00pm 25.0 21.6 7.6 33 9.4 SSE 15 26 8 14 1014.9 1013.2 0.0
20/06:30pm 26.8 22.8 6.8 28 10.8 WSW 17 26 9 14 1014.9 1013.2 0.0
20/06:00pm 26.7 21.0 6.7 28 10.8 W 26 35 14 19 1014.6 1012.9 0.0
20/05:30pm 27.1 23.5 2.9 21 12.2 NNE 11 19 6 10 1014.7 1013.0 0.0
20/05:00pm 27.8 25.1 3.5 21 12.5 SW 7 13 4 7 1014.9 1013.2 0.0
20/04:30pm 27.8 23.3 4.2 22 12.2 W 17 22 9 12 1015.2 1013.4 0.0
20/04:00pm 27.4 23.6 3.8 22 12.1 NW 13 20 7 11 1015.6 1013.8 0.0
20/03:30pm 25.9 22.8 3.8 24 11.2 NE 9 19 5 10 1016.0 1014.2 0.0
20/03:00pm 27.2 24.0 4.9 24 11.7 WSW 11 19 6 10 1016.4 1014.7 0.0
20/02:30pm 26.2 23.3 4.6 25 11.2 NNW 9 15 5 8 1016.9 1015.2 0.0
20/02:00pm 25.2 21.6 4.9 27 10.5 W 13 24 7 13 1017.3 1015.5 0.0
20/01:30pm 24.4 20.7 4.7 28 10.1 WSW 13 22 7 12 1017.8 1016.1 0.0
20/01:00pm 24.1 21.0 5.5 30 9.7 W 11 19 6 10 1018.2 1016.5 0.0
20/12:30pm 24.0 21.3 5.8 31 9.5 N 9 19 5 10 1018.4 1016.7 0.0
20/12:00pm 22.5 19.5 5.9 34 8.6 NNW 11 19 6 10 1018.7 1017.0 0.0
20/11:30am 20.8 18.4 7.1 41 7.2 NW 9 15 5 8 1019.0 1017.3 0.0
20/11:00am 19.8 17.0 6.9 43 6.7 NNE 11 20 6 11 1019.3 1017.5 0.0
20/10:30am 18.8 16.1 7.3 47 6.0 NE 11 19 6 10 1019.4 1017.6 0.0
20/10:00am 18.3 15.6 7.4 49 5.7 ENE 11 19 6 10 1019.6 1017.9 0.0
20/09:30am 16.6 12.8 7.5 55 4.7 NE 17 20 9 11 1019.8 1018.1 0.0
20/09:00am 16.1 12.7 7.8 58 4.3 ENE 15 19 8 10 1019.9 1018.2 0.0
20/08:30am 14.2 10.3 8.6 69 2.9 ENE 19 22 10 12 1019.6 1017.9 0.0
20/08:00am 13.0 9.3 9.4 79 1.9 ENE 19 24 10 13 1019.6 1017.9 0.0
20/07:30am 11.5 7.8 9.4 87 1.1 E 19 24 10 13 1019.3 1017.5 0.0
20/07:00am 10.5 6.8 9.3 92 0.6 E 19 24 10 13 1019.2 1017.4 0.0
20/06:30am 9.7 5.9 9.1 96 0.3 E 19 22 10 12 1018.9 1017.2 0.0
20/06:00am 9.3 5.5 9.0 98 0.2 E 19 24 10 13 1018.5 1016.8 0.0
20/05:30am 9.2 5.7 8.9 98 0.2 E 17 22 9 12 1018.5 1016.8 0.0
20/05:00am 9.3 5.5 9.0 98 0.2 E 19 24 10 13 1018.1 1016.4 0.0
20/04:30am 9.2 5.2 8.9 98 0.2 E 20 24 11 13 1018.0 1016.3 0.0
20/04:00am 9.2 5.2 8.9 98 0.2 ESE 20 24 11 13 1018.0 1016.3 0.0
20/03:30am 9.4 5.0 9.1 98 0.2 ESE 22 26 12 14 1018.1 1016.4 0.0
20/03:00am 9.5 5.1 9.0 97 0.3 ESE 22 28 12 15 1018.2 1016.5 0.0
20/02:30am 9.6 5.2 9.0 96 0.3 ESE 22 28 12 15 1018.4 1016.7 0.0
20/02:00am 9.8 5.4 9.0 95 0.4 ESE 22 26 12 14 1018.9 1017.2 0.0
20/01:30am 10.1 5.3 9.0 93 0.6 SE 24 30 13 16 1019.2 1017.4 0.0
20/01:00am 10.1 6.1 8.9 92 0.6 SE 20 26 11 14 1019.7 1018.0 0.0
20/12:30am 10.4 6.0 9.0 91 0.7 SE 22 30 12 16 1019.9 1018.2 0.0
20/12:00am 10.6 6.2 9.0 90 0.8 SE 22 30 12 16 1020.2 1018.5 0.0
 
Date/Time
CDT
Tmp

°C
App
Tmp
°C
Dew
Point
°C
Rel
Hum
%
Delta-T

°C
Wind Press
QNH
hPa
Press
MSL
hPa
Rain
since
9 am
mm
Dir
 
Spd
km/h
Gust
km/h
Spd
kts
Gust
kts
19/11:30pm 10.7 5.8 8.6 87 1.1 SE 24 32 13 17 1020.3 1018.6 0.0
19/11:00pm 11.0 6.5 8.6 85 1.2 SE 22 32 12 17 1020.5 1018.8 0.0
19/10:30pm 11.2 5.9 8.6 84 1.3 SE 26 35 14 19 1020.5 1018.8 0.0
19/10:00pm 11.6 6.7 8.5 81 1.6 SSE 24 33 13 18 1020.4 1018.7 0.0
19/09:30pm 12.1 7.5 8.0 76 2.1 SSE 22 30 12 16 1020.5 1018.8 0.0
19/09:00pm 12.8 8.5 7.9 72 2.5 SSE 20 30 11 16 1020.3 1018.6 0.0
19/08:30pm 13.8 9.2 8.0 68 3.0 SE 22 33 12 18 1020.1 1018.4 0.0
19/08:00pm 15.3 11.1 8.3 63 3.6 SSE 20 30 11 16 1020.0 1018.3 0.0
19/07:30pm 17.0 12.9 8.7 58 4.4 SSE 20 32 11 17 1019.7 1018.0 0.0
19/07:00pm 18.3 14.2 8.6 53 5.2 S 20 32 11 17 1019.6 1017.9 0.0
19/06:30pm 18.8 14.9 8.5 51 5.5 SSE 19 32 10 17 1019.3 1017.5 0.0
19/06:00pm 20.6 16.4 8.3 45 6.6 S 20 30 11 16 1018.9 1017.2 0.0
19/05:30pm 21.4 18.3 9.0 45 6.7 WSW 15 24 8 13 1018.7 1017.0 0.0
19/05:00pm 22.0 18.7 9.5 45 6.9 SW 17 26 9 14 1018.7 1017.0 0.0
19/04:30pm 21.7 18.2 8.9 44 7.0 SW 17 24 9 13 1018.9 1017.2 0.0
19/04:00pm 21.3 17.3 8.2 43 7.0 W 19 28 10 15 1019.2 1017.4 0.0
19/03:30pm 21.5 17.4 8.7 44 6.9 W 20 33 11 18 1019.4 1017.6 0.0
19/03:00pm 20.4 15.2 8.7 47 6.3 W 26 35 14 19 1019.4 1017.6 0.0
19/02:30pm 19.9 15.2 7.6 45 6.5 WSW 22 33 12 18 1019.6 1017.9 0.0
19/02:00pm 21.4 16.9 6.9 39 7.6 WSW 20 30 11 16 1019.7 1018.0 0.0
19/01:30pm 20.4 16.0 4.8 36 7.8 W 17 24 9 13 1019.9 1018.2 0.0
19/01:00pm 19.6 16.8 5.3 39 7.2 WSW 9 17 5 9 1020.2 1018.5 0.0
19/12:30pm 19.2 15.7 5.6 41 6.8 W 13 24 7 13 1020.4 1018.7 0.0
19/12:00pm 18.3 16.0 5.8 44 6.3 E 7 13 4 7 1020.4 1018.7 0.0
19/11:30am 18.1 15.1 6.0 45 6.1 S 11 19 6 10 1020.4 1018.7 0.0
19/11:00am 15.6 12.9 5.8 52 4.8 ENE 9 28 5 15 1020.2 1018.5 0.0
19/10:30am 16.5 13.5 5.8 49 5.3 S 11 20 6 11 1020.2 1018.5 0.0
19/10:00am 13.9 11.2 5.8 58 4.0 SSW 9 13 5 7 1020.4 1018.7 0.0
19/09:30am 15.1 12.1 6.1 55 4.4 S 11 19 6 10 1020.2 1018.5 0.0
19/09:00am 13.6 9.6 5.0 56 4.1 S 15 20 8 11 1020.0 1018.3 0.0
19/08:30am 13.0 9.6 5.9 62 3.4 S 13 19 7 10 1019.5 1017.8 0.0
19/08:00am 12.8 9.8 7.5 70 2.7 SSE 13 19 7 10 1019.3 1017.5 0.0
19/07:30am 11.1 7.2 7.2 77 1.9 SSE 17 22 9 12 1018.9 1017.2 0.0
19/07:00am 10.2 6.3 6.9 80 1.6 S 17 22 9 12 1018.4 1016.7 0.0
19/06:30am 9.6 5.6 6.7 82 1.4 S 17 24 9 13 1018.0 1016.3 0.0
19/06:00am 9.4 5.0 6.7 83 1.3 S 19 22 10 12 1017.9 1016.2 0.0
19/05:30am 9.3 5.3 6.6 83 1.3 S 17 22 9 12 1017.7 1015.9 0.0
19/05:00am 9.6 5.1 6.3 80 1.6 SSW 19 24 10 13 1017.6 1015.8 0.0
19/04:30am 9.5 5.0 6.2 80 1.6 SSW 19 24 10 13 1017.3 1015.5 0.0
19/04:00am 9.5 5.0 6.2 80 1.6 SSW 19 24 10 13 1017.3 1015.5 0.0
19/03:30am 9.5 4.9 6.4 81 1.5 SSW 20 26 11 14 1017.2 1015.4 0.0
19/03:00am 9.4 5.4 6.5 82 1.4 SSW 17 20 9 11 1017.2 1015.4 0.0
19/02:30am 9.1 5.4 6.5 84 1.2 SSW 15 19 8 10 1017.5 1015.7 0.0
19/02:00am 9.1 5.2 6.9 86 1.1 SSW 17 20 9 11 1017.4 1015.6 0.0
19/01:30am 9.5 5.6 7.1 85 1.2 SSW 17 20 9 11 1017.5 1015.7 0.0
19/01:00am 9.8 5.3 6.9 82 1.4 SSW 20 24 11 13 1017.3 1015.5 0.0
19/12:30am 10.0 5.7 6.9 81 1.5 SSW 19 22 10 12 1017.4 1015.6 0.0
19/12:00am 10.0 5.9 6.2 77 1.8 SSW 17 24 9 13 1017.5 1015.7 0.0
 
Date/Time
CDT
Tmp

°C
App
Tmp
°C
Dew
Point
°C
Rel
Hum
%
Delta-T

°C
Wind Press
QNH
hPa
Press
MSL
hPa
Rain
since
9 am
mm
Dir
 
Spd
km/h
Gust
km/h
Spd
kts
Gust
kts
18/11:30pm 10.2 5.9 5.4 72 2.3 SSW 17 24 9 13 1017.4 1015.6 0.0
18/11:00pm 10.9 5.6 5.2 68 2.7 S 22 28 12 15 1016.9 1015.2 0.0
18/10:30pm 11.1 6.3 5.4 68 2.7 S 20 26 11 14 1016.6 1014.9 0.0
18/10:00pm 11.6 7.2 6.7 72 2.4 S 19 22 10 12 1016.6 1014.9 0.0
18/09:30pm 12.2 9.1 7.3 72 2.4 S 13 17 7 9 1016.3 1014.6 0.0
18/09:00pm 13.1 9.9 6.9 66 3.1 WSW 13 17 7 9 1016.0 1014.2 0.0
18/08:30pm 13.8 11.0 7.1 64 3.4 WSW 11 17 6 9 1015.7 1013.9 0.0
18/08:00pm 14.6 10.8 7.4 62 3.6 WSW 17 22 9 12 1015.4 1013.6 0.0
18/07:30pm 15.6 11.6 8.1 61 3.9 WSW 19 30 10 16 1014.9 1013.2 0.0
18/07:00pm 16.8 12.5 8.0 56 4.6 WSW 20 35 11 19 1014.5 1012.8 0.0
18/06:30pm 18.1 12.9 7.2 49 5.6 WSW 24 41 13 22 1014.2 1012.4 0.0
18/06:00pm 18.0 12.3 6.5 47 5.9 WSW 26 41 14 22 1013.9 1012.1 0.0
18/05:30pm 18.4 13.4 8.1 51 5.4 SW 24 37 13 20 1013.5 1011.7 0.0
18/05:01pm 18.7 11.8 6.5 45 6.2 WSW 32 50 17 27 1012.9 1011.2 0.0
18/05:00pm 19.1 12.2 6.6 44 6.4 WSW 32 46 17 25 1012.9 1011.2 0.0
18/04:44pm 19.9 13.7 6.3 41 7.0 WSW 28 50 15 27 1012.8 1011.1 0.0
18/04:30pm 19.7 14.0 6.8 43 6.7 WSW 26 39 14 21 1012.9 1011.2 0.0
18/04:02pm 17.2 10.3 6.4 49 5.5 WSW 32 50 17 27 1012.8 1011.1 0.0
18/04:00pm 17.8 10.8 6.7 48 5.7 WSW 33 50 18 27 1012.9 1011.2 0.0
18/03:38pm 19.6 13.2 7.0 44 6.5 WSW 30 48 16 26 1012.7 1011.0 0.0
18/03:30pm 18.8 12.0 6.9 46 6.1 WSW 32 46 17 25 1012.7 1011.0 0.0
18/03:01pm 18.4 12.5 7.5 49 5.7 WSW 28 46 15 25 1012.6 1010.8 0.0
18/03:00pm 17.9 11.5 7.0 49 5.6 WSW 30 46 16 25 1012.5 1010.7 0.0
18/02:30pm 17.8 11.4 8.4 54 5.0 WSW 32 50 17 27 1012.4 1010.6 0.0
18/02:00pm 17.1 12.2 11.4 69 3.2 W 28 46 15 25 1012.5 1010.7 0.0
18/01:30pm 17.8 12.0 9.4 58 4.5 W 30 54 16 29 1012.1 1010.3 0.0
18/01:00pm 16.1 10.2 10.6 70 3.0 W 32 50 17 27 1012.4 1010.6 0.0
18/12:58pm 15.7 9.8 10.5 71 2.8 W 32 50 17 27 1012.4 1010.6 0.0
18/12:30pm 13.9 8.9 10.9 82 1.6 W 28 44 15 24 1012.5 1010.7 0.0
18/12:00pm 15.9 9.8 9.6 66 3.4 W 32 52 17 28 1012.2 1010.4 0.0
18/11:55am 15.6 9.2 9.3 66 3.3 W 33 52 18 28 1012.0 1010.2 0.0
18/11:30am 16.0 9.9 9.7 66 3.4 W 32 44 17 24 1011.7 1009.9 0.0
18/11:00am 15.5 9.5 8.5 63 3.6 W 30 48 16 26 1011.6 1009.8 0.0
18/10:51am 16.7 10.6 8.4 58 4.4 WSW 30 48 16 26 1011.8 1010.0 0.0
18/10:30am 15.5 9.6 9.0 65 3.4 W 30 44 16 24 1011.6 1009.8 0.0
18/10:02am 15.8 9.1 8.3 61 3.9 W 33 52 18 28 1011.3 1009.5 0.0
18/10:00am 15.4 8.8 8.4 63 3.6 W 33 46 18 25 1011.3 1009.5 0.0

Latest Capital City Observations: Canberra | Sydney | Melbourne | Brisbane | Adelaide | Perth | Hobart | Darwin

Other Formats:

Comma delimited format used in spreadsheet applications
http://www.bom.gov.au/fwo/IDS60901/IDS60901.94678.axf

JavaScript Object Notation format (JSON) in row-major order
http://www.bom.gov.au/fwo/IDS60901/IDS60901.94678.json